Flight Track Log - Related Links

Times and Time Zones

All times are in EDT time to prevent confusion due to time zone crossing. See the AVA43 flight status page for this flight to view local times or setup timezone preferences in your user account.

Time Position Orientation Groundspeed Altitude Reporting Facility
EDT Latitude Longitude Course Direction KTS MPH feet Rate Location/Type
Mon 08:57:26 AM 40.6400 -73.7800 149° Southeast  Level FlightAware ADS-B
Mon 08:59:38 AM 40.6410 -73.7790 37° Northeast 18 21 44 Level FlightAware ADS-B
Mon 09:00:36 AM 40.6420 -73.7770 57° Northeast 22 25 55 Level FlightAware ADS-B
Mon 09:01:29 AM 40.6410 -73.7750 123° Southeast 13 15 61 Level FlightAware ADS-B
Mon 09:02:53 AM 40.6410 -73.7740 90° East 20 23 68 Level FlightAware ADS-B
Mon 09:03:21 AM 40.6390 -73.7750 201° Southwest 17 20 85 Level FlightAware ADS-B
Mon 09:03:49 AM 40.6370 -73.7770 217° Southwest 19 22 92 Level FlightAware ADS-B
Mon 09:04:13 AM 40.6360 -73.7780 217° Southwest 31 36 101 Level FlightAware ADS-B
Mon 09:04:35 AM 40.6350 -73.7790 217° Southwest 27 31 109 Level FlightAware ADS-B
Mon 09:04:54 AM 40.6340 -73.7800 217° Southwest 28 32 119 Level FlightAware ADS-B
Mon 09:05:05 AM 40.6340 -73.7810 270° West 28 32 129 Level FlightAware ADS-B
Mon 09:05:29 AM 40.6350 -73.7820 323° Northwest 15 17 135 Level FlightAware ADS-B
Mon 09:05:51 AM 40.6340 -73.7820 180° South 2 2 152 Level FlightAware ADS-B
Mon 09:07:05 AM 40.6330 -73.7830 217° Southwest 25 29 170 Level FlightAware ADS-B
Mon 09:08:03 AM 40.6340 -73.7840 323° Northwest 40 46 294 Level FlightAware ADS-B
Mon 09:08:31 AM 40.6410 -73.8010 298° West 160 184 682 Level FlightAware ADS-B
Mon 09:08:47 AM 40.6480 -73.8150 303° West 171 197 500 1,941 Climbing FlightAware ADS-B
Mon 09:09:05 AM 40.6520 -73.8330 286° West 176 203 1,100 1,350 Climbing FlightAware ADS-B
Mon 09:09:27 AM 40.6430 -73.8540 241° Southwest 198 228 1,400 947 Climbing FlightAware ADS-B
Mon 09:09:43 AM 40.6320 -73.8680 224° Southwest 213 245 1,700 1,350 Climbing FlightAware ADS-B
Mon 09:10:07 AM 40.6140 -73.8920 225° Southwest 236 272 2,300 1,500 Climbing FlightAware ADS-B
Mon 09:10:35 AM 40.5890 -73.9140 214° Southwest 259 298 3,000 2,174 Climbing FlightAware ADS-B
Mon 09:11:16 AM 40.5480 -73.9470 211° Southwest 264 304 4,800 2,719 Climbing FlightAware ADS-B
Mon 09:11:39 AM 40.5200 -73.9700 212° Southwest 270 311 5,900 2,550 Climbing FlightAware ADS-B
Mon 09:11:56 AM 40.5040 -73.9840 214° Southwest 271 312 6,500 2,000 Climbing FlightAware ADS-B
Mon 09:12:21 AM 40.4840 -73.9990 210° Southwest 273 314 7,300 2,222 Climbing FlightAware ADS-B
Mon 09:12:50 AM 40.4460 -74.0300 212° Southwest 283 326 8,500 2,091 Climbing FlightAware ADS-B
Mon 09:13:27 AM 40.4130 -74.0570 212° Southwest 289 333 9,600 2,386 Climbing FlightAware ADS-B
Mon 09:14:13 AM 40.3610 -74.1220 224° Southwest 292 336 11,800 2,226 Climbing FlightAware ADS-B
Mon 09:14:29 AM 40.3530 -74.1490 249° West 293 337 11,900 480 Climbing FlightAware ADS-B
Mon 09:14:38 AM 40.3460 -74.1600 230° Southwest 292 336 12,000 207 Climbing FlightAware ADS-B
Mon 09:14:58 AM 40.3210 -74.1740 203° Southwest 295 339 12,000 1,021 Level FlightAware ADS-B
Mon 09:15:25 AM 40.2850 -74.1660 170° South 298 343 12,800 1,869 Climbing FlightAware ADS-B
Mon 09:15:59 AM 40.2370 -74.1530 168° South 304 350 13,900 2,000 Climbing FlightAware ADS-B
Mon 09:16:13 AM 40.2170 -74.1610 197° South 299 344 14,400 1,309 Climbing FlightAware ADS-B
Mon 09:16:54 AM 40.1610 -74.1860 199° South 326 375 15,100 1,129 Climbing FlightAware ADS-B
Mon 09:17:38 AM 40.0950 -74.2140 198° South 348 400 16,000 1,350 Climbing FlightAware ADS-B
Mon 09:18:14 AM 40.0400 -74.2370 198° South 357 411 16,900 1,680 Climbing FlightAware ADS-B
Mon 09:18:53 AM 39.9830 -74.2760 208° Southwest 350 403 18,100 1,829 Climbing FlightAware ADS-B
Mon 09:19:36 AM 39.9330 -74.3370 223° Southwest 346 398 19,400 1,500 Climbing FlightAware ADS-B
Mon 09:20:17 AM 39.8840 -74.3980 224° Southwest 357 411 20,200 1,341 Climbing FlightAware ADS-B
Mon 09:21:01 AM 39.8300 -74.4640 223° Southwest 362 417 21,300 1,341 Climbing FlightAware ADS-B
Mon 09:21:42 AM 39.7810 -74.5240 223° Southwest 367 422 22,100 1,129 Climbing FlightAware ADS-B
Mon 09:22:26 AM 39.7250 -74.5930 223° Southwest 377 434 22,900 1,143 Climbing FlightAware ADS-B
Mon 09:23:06 AM 39.6740 -74.6560 224° Southwest 381 438 23,700 1,325 Climbing FlightAware ADS-B
Mon 09:23:43 AM 39.6270 -74.7130 223° Southwest 379 436 24,600 1,263 Climbing FlightAware ADS-B
Mon 09:24:22 AM 39.5780 -74.7740 224° Southwest 385 443 25,300 789 Climbing FlightAware ADS-B
Mon 09:24:59 AM 39.5280 -74.8350 223° Southwest 400 460 25,600 474 Climbing FlightAware ADS-B
Mon 09:25:38 AM 39.4740 -74.9010 223° Southwest 415 478 25,900 651 Climbing FlightAware ADS-B
Mon 09:26:22 AM 39.4110 -74.9770 223° Southwest 422 486 26,500 815 Climbing FlightAware ADS-B
Mon 09:26:59 AM 39.3590 -75.0390 223° Southwest 429 494 27,000 846 Climbing FlightAware ADS-B
Mon 09:27:40 AM 39.2900 -75.0990 214° Southwest 438 504 27,600 889 Climbing FlightAware ADS-B
Mon 09:28:20 AM 39.2190 -75.1440 206° Southwest 445 512 28,200 900 Climbing FlightAware ADS-B
Mon 09:29:00 AM 39.1390 -75.1790 199° South 452 520 28,800 907 Climbing FlightAware ADS-B
Mon 09:29:46 AM 39.0450 -75.2190 198° South 457 526 29,500 1,116 Climbing FlightAware ADS-B
Mon 09:30:26 AM 38.9650 -75.2520 198° South 456 525 30,400 1,385 Climbing FlightAware ADS-B
Mon 09:31:04 AM 38.8880 -75.2840 198° South 453 521 31,300 1,304 Climbing FlightAware ADS-B
Mon 09:31:35 AM 38.8270 -75.3100 198° South 453 521 31,900 1,200 Climbing FlightAware ADS-B
Mon 09:32:14 AM 38.7510 -75.3420 198° South 451 519 32,700 1,200 Climbing FlightAware ADS-B
Mon 09:32:55 AM 38.6710 -75.3750 198° South 449 517 33,500 1,215 Climbing FlightAware ADS-B
Mon 09:33:33 AM 38.5960 -75.4060 198° South 447 514 34,300 1,200 Climbing FlightAware ADS-B
Mon 09:34:15 AM 38.5100 -75.4420 198° South 445 512 35,100 1,023 Climbing FlightAware ADS-B
Mon 09:35:01 AM 38.4210 -75.4790 198° South 444 511 35,800 750 Climbing FlightAware ADS-B
Mon 09:35:27 AM 38.3720 -75.4990 198° South 445 512 36,000 190 Climbing FlightAware ADS-B
Mon 09:36:04 AM 38.3040 -75.5360 203° Southwest 433 498 36,000  Level FlightAware ADS-B
Mon 09:36:44 AM 38.2290 -75.5830 206° Southwest 433 498 36,000  Level FlightAware ADS-B
Mon 09:37:25 AM 38.1550 -75.6290 206° Southwest 432 497 36,000  Level FlightAware ADS-B
Mon 09:38:06 AM 38.0760 -75.6630 199° South 440 506 36,000  Level FlightAware ADS-B
Mon 09:38:52 AM 37.9820 -75.6740 185° South 449 517 36,000  Level FlightAware ADS-B
Mon 09:39:55 AM 37.8490 -75.6890 185° South 449 517 36,000  Level FlightAware ADS-B
Mon 09:40:51 AM 37.7390 -75.7210 193° South 431 496 36,000  Level FlightAware ADS-B
Mon 09:41:36 AM 37.6560 -75.7690 205° Southwest 438 504 36,000  Level FlightAware ADS-B
Mon 09:42:19 AM 37.5750 -75.8140 204° Southwest 438 504 36,000  Level FlightAware ADS-B
Mon 09:43:04 AM 37.4950 -75.8600 205° Southwest 438 504 36,000  Level FlightAware ADS-B
Mon 09:43:32 AM 37.4420 -75.8900 204° Southwest 439 505 36,000  Level FlightAware ADS-B
Mon 09:44:22 AM 37.3520 -75.9410 204° Southwest 438 504 36,000  Level FlightAware ADS-B
Mon 09:45:02 AM 37.2740 -75.9850 204° Southwest 438 504 36,000  Level FlightAware ADS-B
Mon 09:45:45 AM 37.1960 -76.0290 204° Southwest 439 505 36,000  Level FlightAware ADS-B
Mon 09:46:20 AM 37.1370 -76.0620 204° Southwest 439 505 36,000  Level FlightAware ADS-B
Mon 09:47:06 AM 37.0510 -76.1100 204° Southwest 440 506 36,000  Level FlightAware ADS-B
Mon 09:47:51 AM 36.9600 -76.1610 204° Southwest 441 507 36,000  Level FlightAware ADS-B
Mon 09:48:33 AM 36.8810 -76.2050 204° Southwest 442 509 36,000  Level FlightAware ADS-B
Mon 09:49:26 AM 36.7950 -76.2480 202° Southwest 444 511 36,000  Level FlightAware ADS-B
Mon 09:50:23 AM 36.6690 -76.2780 191° South 443 510 36,000  Level FlightAware ADS-B
Mon 09:51:05 AM 36.5780 -76.3020 192° South 452 520 36,000  Level FlightAware ADS-B
Mon 09:51:59 AM 36.4650 -76.3060 182° South 453 521 36,000  Level FlightAware ADS-B
Mon 09:52:33 AM 36.3950 -76.3000 176° South 451 519 36,000  Level FlightAware ADS-B
Mon 09:53:19 AM 36.3050 -76.3210 191° South 444 511 36,000  Level FlightAware ADS-B
Mon 09:53:59 AM 36.2180 -76.3430 192° South 443 510 36,000  Level FlightAware ADS-B
Mon 09:54:38 AM 36.1350 -76.3650 192° South 442 509 36,000  Level FlightAware ADS-B
Mon 09:55:24 AM 36.0440 -76.3880 192° South 442 509 36,000  Level FlightAware ADS-B
Mon 09:56:25 AM 35.9350 -76.4170 192° South 441 507 36,000  Level FlightAware ADS-B
Mon 09:57:18 AM 35.8120 -76.4480 192° South 440 506 36,000  Level FlightAware ADS-B
Mon 09:57:58 AM 35.7450 -76.4660 192° South 440 506 36,000  Level FlightAware ADS-B
Mon 09:58:46 AM 35.6630 -76.4870 192° South 440 506 36,000  Level FlightAware ADS-B
Mon 09:59:22 AM 35.6020 -76.5030 192° South 440 506 36,000  Level FlightAware ADS-B
Mon 10:00:22 AM 35.5010 -76.5290 192° South 440 506 36,000  Level FlightAware ADS-B
Mon 10:00:59 AM 35.4380 -76.5460 192° South 440 506 36,000  Level FlightAware ADS-B
Mon 10:02:01 AM 35.3330 -76.5730 192° South 440 506 36,000  Level FlightAware ADS-B
Mon 10:02:38 AM 35.2710 -76.5890 192° South 440 506 36,000  Level FlightAware ADS-B
Mon 10:03:39 AM 35.1680 -76.6160 192° South 440 506 36,000  Level FlightAware ADS-B
Mon 10:04:15 AM 35.1070 -76.6320 192° South 440 506 36,000  Level FlightAware ADS-B
Mon 10:05:04 AM 35.0240 -76.6540 192° South 440 506 36,000  Level FlightAware ADS-B
Mon 10:05:40 AM 34.9630 -76.6700 192° South 440 506 36,000  Level FlightAware ADS-B
Mon 10:06:28 AM 34.8820 -76.6910 192° South 440 506 36,000  Level FlightAware ADS-B
Mon 10:07:04 AM 34.8210 -76.7060 191° South 440 506 36,000 -67 Level FlightAware ADS-B
Mon 10:07:58 AM 34.5122 -76.7767 191° South 449 517 35,900 -53 Descending Washington Center
Mon 10:08:58 AM 34.3908 -76.8078 192° South 449 517 35,900 50 Level Washington Center
Mon 10:09:59 AM 34.2928 -76.8314 191° South 449 517 36,000  Climbing Washington Center
Mon 10:11:00 AM 34.1442 -76.8692 192° South 449 517 35,900 -50 Descending Washington Center
Mon 10:11:58 AM 34.0228 -76.9000 192° South 449 517 35,900 51 Level Washington Center
Mon 10:12:58 AM 33.8994 -76.9256 190° South 449 517 36,000 50 Climbing Washington Center
Mon 10:13:59 AM 33.7781 -76.9561 192° South 449 517 36,000  Level Washington Center
Mon 10:15:11 AM 33.6547 -76.9889 192° South 449 517 36,000 -28 Level Washington Center
Mon 10:17:30 AM 33.3325 -77.0656 191° South 444 511 35,900  Descending Jacksonville Center
Mon 10:18:30 AM 33.2086 -77.0961 192° South 449 517 36,000 50 Climbing Jacksonville Center
Mon 10:19:30 AM 33.0847 -77.1239 191° South 455 524 36,000  Level Jacksonville Center
Mon 10:20:30 AM 32.9650 -77.1514 191° South 450 518 36,000  Level Jacksonville Center
Mon 10:21:30 AM 32.8411 -77.1792 191° South 450 518 36,000 -50 Level Jacksonville Center
Mon 10:22:30 AM 32.7175 -77.2117 192° South 450 518 35,900  Descending Jacksonville Center
Mon 10:23:30 AM 32.5956 -77.2392 191° South 450 518 36,000  Climbing Jacksonville Center
Mon 10:24:30 AM 32.4739 -77.2714 193° South 450 518 35,900 -50 Descending Jacksonville Center
Mon 10:25:30 AM 32.3539 -77.2958 190° South 450 518 35,900  Level Jacksonville Center
Mon 10:26:30 AM 32.2300 -77.3256 191° South 450 518 35,900  Level Jacksonville Center
Mon 10:27:30 AM 32.1081 -77.3550 192° South 450 518 35,900 50 Level Jacksonville Center
Mon 10:28:30 AM 31.9869 -77.3992 197° South 450 518 36,000 50 Climbing Jacksonville Center
Mon 10:29:30 AM 31.8797 -77.4789 212° Southwest 455 524 36,000  Level Jacksonville Center
Mon 10:30:30 AM 31.7703 -77.5561 211° Southwest 455 524 36,000  Level Jacksonville Center
Mon 10:31:30 AM 31.6650 -77.6353 213° Southwest 461 531 36,000 -50 Level Jacksonville Center
Mon 10:32:30 AM 31.5575 -77.7122 211° Southwest 461 531 35,900 -50 Descending Jacksonville Center
Mon 10:33:30 AM 31.4483 -77.7961 213° Southwest 461 531 35,900 50 Level Jacksonville Center
Mon 10:34:30 AM 31.3353 -77.8411 199° South 437 503 36,000  Climbing Jacksonville Center
Mon 10:35:30 AM 31.2097 -77.8308 176° South 432 497 35,900 -50 Descending Jacksonville Center
Mon 10:36:30 AM 31.0839 -77.8208 176° South 442 509 35,900 50 Level Jacksonville Center
Mon 10:37:30 AM 30.9622 -77.8056 174° South 447 514 36,000 50 Climbing Jacksonville Center
Mon 10:38:30 AM 30.8408 -77.7950 176° South 442 509 36,000  Level Jacksonville Center
Mon 10:40:30 AM 30.6131 -77.7739 175° South 469 540 36,000  Level Miami Center
Mon 10:41:30 AM 30.4819 -77.7606 175° South 469 540 36,000 -50 Level Miami Center
Mon 10:42:30 AM 30.3547 -77.7500 176° South 464 534 35,900 -50 Descending Miami Center
Mon 10:43:30 AM 30.2422 -77.7539 182° South 446 513 35,900 50 Level Miami Center
Mon 10:44:30 AM 30.1067 -77.7383 174° South 451 519 36,000  Climbing Miami Center
Mon 10:45:30 AM 29.9858 -77.7325 178° South 455 524 35,900  Descending Miami Center
Mon 10:46:30 AM 29.8567 -77.7219 176° South 445 512 36,000  Climbing Miami Center
Mon 10:47:30 AM 29.7356 -77.7186 179° South 459 528 35,900  Descending Miami Center
Mon 10:48:30 AM 29.6022 -77.7081 176° South 461 531 36,000 50 Climbing Miami Center
Mon 10:49:30 AM 29.4731 -77.6997 177° South 471 542 36,000  Level Miami Center
Mon 10:50:30 AM 29.3478 -77.6917 177° South 465 535 36,000  Level Miami Center
Mon 10:51:30 AM 29.2206 -77.6861 178° South 457 526 36,000 -50 Level Miami Center
Mon 10:52:30 AM 29.0872 -77.6756 176° South 462 532 35,900 -50 Descending Miami Center
Mon 10:53:30 AM 28.9578 -77.6697 178° South 466 536 35,900 50 Level Miami Center
Mon 10:54:30 AM 28.8222 -77.6569 175° South 504 580 36,000 50 Climbing Miami Center
Mon 10:55:30 AM 28.6969 -77.6514 178° South 461 531 36,000  Level Miami Center
Mon 10:56:30 AM 28.5614 -77.6411 176° South 474 545 36,000 -50 Level Miami Center
Mon 10:57:30 AM 28.4361 -77.6378 179° South 474 545 35,900  Descending Miami Center
Mon 11:03:19 AM 27.6850 -77.5900 179° South 453 521 36,000 15 Climbing FlightAware ADS-B
Mon 11:03:58 AM 27.5900 -77.5840 177° South 452 520 36,000  Level FlightAware ADS-B
Mon 11:04:35 AM 27.5240 -77.5800 177° South 452 520 36,000  Level FlightAware ADS-B
Mon 11:05:48 AM 27.3950 -77.5730 177° South 452 520 36,000 111 Level FlightAware ADS-B
Mon 11:06:23 AM 27.2840 -77.5660 177° South 450 518 36,200 568 Climbing FlightAware ADS-B
Mon 11:07:02 AM 27.2030 -77.5620 177° South 452 520 36,700 330 Climbing FlightAware ADS-B
Mon 11:07:54 AM 27.1110 -77.5560 177° South 452 520 36,700  Level FlightAware ADS-B
Mon 11:08:30 AM 27.0470 -77.5530 178° South 452 520 36,700  Level FlightAware ADS-B
Mon 11:09:17 AM 26.9630 -77.5480 177° South 452 520 36,700  Level FlightAware ADS-B
Mon 11:09:53 AM 26.9000 -77.5440 177° South 452 520 36,700  Level FlightAware ADS-B
Mon 11:10:41 AM 26.8140 -77.5390 177° South 452 520 36,700  Level FlightAware ADS-B
Mon 11:11:19 AM 26.7470 -77.5350 177° South 452 520 36,700  Level FlightAware ADS-B
Mon 11:11:56 AM 26.6810 -77.5310 177° South 452 520 36,700  Level FlightAware ADS-B
Mon 11:12:46 AM 26.5920 -77.5260 177° South 452 520 36,700  Level FlightAware ADS-B
Mon 11:13:10 AM 26.5500 -77.5230 176° South 452 520 36,700  Level FlightAware ADS-B
Mon 11:13:56 AM 26.4680 -77.5190 177° South 452 520 36,700  Level FlightAware ADS-B
Mon 11:14:32 AM 26.4040 -77.5150 177° South 452 520 36,700 254 Level FlightAware ADS-B
Mon 11:15:07 AM 26.1620 -77.5030 177° South 467 537 37,000 265 Climbing FlightAware ADS-B
Mon 11:15:40 AM 26.1020 -77.4990 177° South 467 537 37,000  Level FlightAware ADS-B
Mon 11:16:28 AM 26.0140 -77.4940 177° South 467 537 37,000  Level FlightAware ADS-B
Mon 11:17:04 AM 25.9480 -77.4900 177° South 467 537 37,000  Level FlightAware ADS-B
Mon 11:17:42 AM 25.8780 -77.4860 177° South 467 537 37,000  Level FlightAware ADS-B
Mon 11:18:30 AM 25.7900 -77.4810 177° South 467 537 37,000  Level FlightAware ADS-B
Mon 11:19:18 AM 25.6150 -77.4720 177° South 466 536 37,000  Level FlightAware ADS-B
Mon 11:20:12 AM 25.4970 -77.4660 177° South 465 535 37,000  Level FlightAware ADS-B
Mon 11:21:09 AM 25.3830 -77.4590 177° South 466 536 37,000  Level FlightAware ADS-B
Mon 11:21:45 AM 25.3170 -77.4550 177° South 466 536 37,000  Level FlightAware ADS-B
Mon 11:22:21 AM 25.2510 -77.4510 177° South 466 536 37,000  Level FlightAware ADS-B
Mon 11:23:10 AM 25.1610 -77.4460 177° South 466 536 37,000  Level FlightAware ADS-B
Mon 11:23:50 AM 25.0380 -77.4400 177° South 470 541 37,000  Level FlightAware ADS-B
Mon 11:24:26 AM 24.9720 -77.4360 177° South 470 541 37,000  Level FlightAware ADS-B
Mon 11:25:13 AM 24.8510 -77.4290 177° South 37,000  Level FlightAware ADS-B
Mon 11:25:51 AM 24.7740 -77.4250 177° South 470 541 37,000  Level FlightAware ADS-B
Mon 11:27:01 AM 24.6440 -77.4180 177° South 470 541 37,000  Level FlightAware ADS-B
Mon 11:27:39 AM 24.5740 -77.4140 177° South 470 541 37,000  Level FlightAware ADS-B
Mon 11:28:15 AM 24.5080 -77.4100 177° South 470 541 37,000  Level FlightAware ADS-B
Mon 11:29:03 AM 24.4190 -77.4050 177° South 470 541 37,000  Level FlightAware ADS-B
Mon 11:30:03 AM 24.3080 -77.3980 177° South 470 541 37,000  Level FlightAware ADS-B
Mon 11:30:39 AM 24.2420 -77.3940 177° South 470 541 37,000  Level FlightAware ADS-B
Mon 11:31:27 AM 24.1530 -77.3890 177° South 470 541 37,000  Level FlightAware ADS-B
Mon 11:32:04 AM 24.0850 -77.3850 177° South 470 541 37,000  Level FlightAware ADS-B
Mon 11:32:41 AM 24.0170 -77.3820 178° South 470 541 37,000  Level FlightAware ADS-B
Mon 11:33:29 AM 23.9280 -77.3760 176° South 470 541 37,000  Level FlightAware ADS-B
Mon 11:34:29 AM 23.8180 -77.3700 177° South 470 541 37,000  Level FlightAware ADS-B
Mon 11:35:05 AM 23.7510 -77.3660 177° South 470 541 37,000  Level FlightAware ADS-B
Mon 11:36:30 AM 23.3836 -77.3503 177° South 457 526 37,000  Level Miami Center
Mon 11:38:00 AM 23.1995 -77.3339 175° South  Level FlightAware Approximate
Mon 11:45:00 AM 22.3405 -77.2579 175° South  Level FlightAware Approximate
Mon 11:46:00 AM 22.2176 -77.2475 176° South  Level FlightAware Approximate
Mon 11:47:00 AM 22.0948 -77.2379 176° South  Level FlightAware Approximate
Mon 11:48:00 AM 21.9720 -77.2284 176° South  Level FlightAware Approximate
Mon 11:49:00 AM 21.8492 -77.2188 176° South  Level FlightAware Approximate
Mon 11:50:00 AM 21.7263 -77.2093 176° South  Level FlightAware Approximate
Mon 11:51:00 AM 21.6035 -77.1998 176° South  Level FlightAware Approximate
Mon 11:52:00 AM 21.4807 -77.1903 176° South  Level FlightAware Approximate
Mon 11:53:00 AM 21.3579 -77.1809 176° South  Level FlightAware Approximate
Mon 11:54:00 AM 21.2351 -77.1714 176° South  Level FlightAware Approximate
Mon 11:55:00 AM 21.1122 -77.1620 176° South  Level FlightAware Approximate
Mon 11:56:00 AM 20.9894 -77.1526 176° South  Level FlightAware Approximate
Mon 11:57:00 AM 20.8666 -77.1432 176° South  Level FlightAware Approximate
Mon 11:58:00 AM 20.7438 -77.1338 176° South  Level FlightAware Approximate
Mon 11:59:00 AM 20.6210 -77.1244 176° South  Level FlightAware Approximate
Mon 12:00:00 PM 20.4981 -77.1151 176° South  Level FlightAware Approximate
Mon 12:01:00 PM 20.3753 -77.1057 176° South  Level FlightAware Approximate
Mon 12:02:00 PM 20.2534 -77.0896 168° South  Level FlightAware Approximate
Mon 12:03:00 PM 20.1326 -77.0643 173° South  Level FlightAware Approximate
Mon 12:04:00 PM 20.0105 -77.0478 173° South  Level FlightAware Approximate
Mon 12:05:00 PM 19.8883 -77.0313 173° South  Level FlightAware Approximate
Mon 12:06:00 PM 19.7662 -77.0148 173° South  Level FlightAware Approximate
Mon 12:07:00 PM 19.6440 -76.9984 173° South  Level FlightAware Approximate
Mon 12:08:00 PM 19.5219 -76.9820 173° South  Level FlightAware Approximate
Mon 12:09:00 PM 19.3997 -76.9656 173° South  Level FlightAware Approximate
Mon 12:10:00 PM 19.2775 -76.9492 173° South  Level FlightAware Approximate
Mon 12:11:00 PM 19.1554 -76.9327 173° South  Level FlightAware Approximate
Mon 12:12:00 PM 19.0332 -76.9162 173° South  Level FlightAware Approximate
Mon 12:13:00 PM 18.9111 -76.8998 173° South  Level FlightAware Approximate
Mon 12:14:00 PM 18.7889 -76.8833 173° South  Level FlightAware Approximate
Mon 12:15:00 PM 18.6668 -76.8669 173° South  Level FlightAware Approximate
Mon 12:16:00 PM 18.5446 -76.8505 173° South  Level FlightAware Approximate
Mon 12:17:00 PM 18.4225 -76.8342 173° South  Level FlightAware Approximate
Mon 12:18:00 PM 18.3003 -76.8178 173° South  Level FlightAware Approximate
Mon 12:19:00 PM 18.1782 -76.8015 173° South  Level FlightAware Approximate
Mon 12:20:00 PM 18.0560 -76.7852 173° South  Level FlightAware Approximate
Mon 12:21:00 PM 17.9339 -76.7690 173° South  Level FlightAware Approximate
Mon 12:22:00 PM 17.8144 -76.7382 165° South  Level FlightAware Approximate
Mon 12:23:00 PM 17.6954 -76.7051 165° South  Level FlightAware Approximate
Mon 12:24:00 PM 17.5763 -76.6720 165° South  Level FlightAware Approximate
Mon 12:25:00 PM 17.4573 -76.6390 165° South  Level FlightAware Approximate
Mon 12:26:00 PM 17.3383 -76.6060 165° South  Level FlightAware Approximate
Mon 12:27:00 PM 17.2192 -76.5731 165° South  Level FlightAware Approximate
Mon 12:28:00 PM 17.1002 -76.5402 165° South  Level FlightAware Approximate
Mon 12:29:00 PM 16.9811 -76.5073 165° South  Level FlightAware Approximate
Mon 12:30:00 PM 16.8620 -76.4745 165° South  Level FlightAware Approximate
Mon 12:31:00 PM 16.7430 -76.4417 165° South  Level FlightAware Approximate
Mon 12:32:00 PM 16.6239 -76.4090 165° South  Level FlightAware Approximate
Mon 12:33:00 PM 16.5048 -76.3763 165° South  Level FlightAware Approximate
Mon 12:34:00 PM 16.3857 -76.3437 165° South  Level FlightAware Approximate
Mon 12:35:00 PM 16.2667 -76.3111 165° South  Level FlightAware Approximate
Mon 12:36:00 PM 16.1476 -76.2785 165° South  Level FlightAware Approximate
Mon 12:37:00 PM 16.0285 -76.2459 165° South  Level FlightAware Approximate
Mon 12:38:00 PM 15.9094 -76.2135 165° South  Level FlightAware Approximate
Mon 12:39:00 PM 15.7903 -76.1810 165° South  Level FlightAware Approximate
Mon 12:40:00 PM 15.6712 -76.1486 165° South  Level FlightAware Approximate
Mon 12:41:00 PM 15.5520 -76.1162 165° South  Level FlightAware Approximate
Mon 12:42:00 PM 15.4329 -76.0839 165° South  Level FlightAware Approximate
Mon 12:43:00 PM 15.3138 -76.0516 165° South  Level FlightAware Approximate
Mon 12:44:00 PM 15.1946 -76.0193 165° South  Level FlightAware Approximate
Mon 12:45:00 PM 15.0755 -75.9871 165° South  Level FlightAware Approximate
Mon 12:46:00 PM 14.9563 -75.9549 165° South  Level FlightAware Approximate
Mon 12:47:00 PM 14.8372 -75.9228 165° South  Level FlightAware Approximate
Mon 12:48:00 PM 14.7180 -75.8907 165° South  Level FlightAware Approximate
Mon 12:49:00 PM 14.5989 -75.8587 165° South  Level FlightAware Approximate
Mon 12:50:00 PM 14.4797 -75.8267 165° South  Level FlightAware Approximate
Mon 12:51:00 PM 14.3605 -75.7947 165° South  Level FlightAware Approximate
Mon 12:52:00 PM 14.2413 -75.7628 165° South  Level FlightAware Approximate
Mon 12:53:00 PM 14.1221 -75.7309 165° South  Level FlightAware Approximate
Mon 12:54:00 PM 14.0029 -75.6990 165° South  Level FlightAware Approximate
Mon 12:55:00 PM 13.8837 -75.6672 165° South  Level FlightAware Approximate
Mon 12:56:00 PM 13.7646 -75.6354 165° South  Level FlightAware Approximate
Mon 12:57:00 PM 13.6454 -75.6036 165° South  Level FlightAware Approximate
Mon 12:58:00 PM 13.5261 -75.5719 165° South  Level FlightAware Approximate
Mon 12:59:00 PM 13.4069 -75.5402 165° South  Level FlightAware Approximate
Mon 01:00:00 PM 13.2877 -75.5085 166° South  Level FlightAware Approximate
Mon 01:01:00 PM 13.1685 -75.4768 166° South  Level FlightAware Approximate
Mon 01:02:00 PM 13.0493 -75.4452 166° South  Level FlightAware Approximate
Mon 01:03:00 PM 12.9300 -75.4137 166° South  Level FlightAware Approximate
Mon 01:04:00 PM 12.8108 -75.3821 166° South  Level FlightAware Approximate
Mon 01:05:00 PM 12.6916 -75.3506 166° South  Level FlightAware Approximate
Mon 01:06:00 PM 12.5723 -75.3191 166° South  Level FlightAware Approximate
Mon 01:07:00 PM 12.4531 -75.2876 166° South  Level FlightAware Approximate
Mon 01:08:00 PM 12.3339 -75.2562 166° South  Level FlightAware Approximate
Mon 01:09:00 PM 12.2146 -75.2248 166° South  Level FlightAware Approximate
Mon 01:10:00 PM 12.0954 -75.1934 166° South  Level FlightAware Approximate
Mon 01:11:00 PM 11.9761 -75.1620 166° South  Level FlightAware Approximate
Mon 01:11:16 PM 11.6390 -75.0790 166° South 465 535 37,000  Level FlightAware ADS-B
Mon 01:11:40 PM 11.5880 -75.0660 166° South 465 535 37,000  Level FlightAware ADS-B
Mon 01:12:39 PM 11.4770 -75.0370 166° South 464 534 37,000  Level FlightAware ADS-B
Mon 01:13:24 PM 11.3680 -75.0090 166° South 462 532 37,000  Level FlightAware ADS-B
Mon 01:14:04 PM 11.2860 -74.9870 165° South 463 533 37,000  Level FlightAware ADS-B
Mon 01:14:52 PM 11.2060 -74.9670 166° South 463 533 37,000  Level FlightAware ADS-B
Mon 01:15:29 PM 11.1080 -74.9410 165° South 464 534 37,000  Level FlightAware ADS-B
Mon 01:16:14 PM 11.0140 -74.9170 166° South 464 534 37,000  Level FlightAware ADS-B
Mon 01:16:54 PM 10.9330 -74.8960 166° South 464 534 37,000  Level FlightAware ADS-B
Mon 01:17:29 PM 10.8580 -74.8790 167° South 463 533 37,000  Level FlightAware ADS-B
Mon 01:18:11 PM 10.7740 -74.8730 176° South 463 533 37,000  Level FlightAware ADS-B
Mon 01:18:41 PM 10.7080 -74.8760 183° South 463 533 37,000  Level FlightAware ADS-B
Mon 01:19:19 PM 10.6230 -74.8890 189° South 462 532 37,000  Level FlightAware ADS-B
Mon 01:19:54 PM 10.5490 -74.9020 190° South 463 533 37,000  Level FlightAware ADS-B
Mon 01:20:34 PM 10.4640 -74.9160 189° South 463 533 37,000  Level FlightAware ADS-B
Mon 01:21:19 PM 10.3690 -74.9320 189° South 464 534 37,000  Level FlightAware ADS-B
Mon 01:21:54 PM 10.2960 -74.9450 190° South 465 535 37,000  Level FlightAware ADS-B
Mon 01:22:34 PM 10.2080 -74.9430 179° South 470 541 37,000  Level FlightAware ADS-B
Mon 01:23:14 PM 10.1220 -74.9340 174° South 472 543 37,000  Level FlightAware ADS-B
Mon 01:24:00 PM 10.0360 -74.9250 174° South 472 543 37,000  Level FlightAware ADS-B
Mon 01:24:44 PM 9.9330 -74.9140 174° South 475 547 37,000  Level FlightAware ADS-B
Mon 01:25:34 PM 9.8150 -74.9020 174° South 476 548 37,000  Level FlightAware ADS-B
Mon 01:26:19 PM 9.7170 -74.8920 174° South 477 549 37,000  Level FlightAware ADS-B
Mon 01:27:04 PM 9.6160 -74.8810 174° South 475 547 37,000  Level FlightAware ADS-B
Mon 01:27:46 PM 9.5300 -74.8720 174° South 474 545 37,000  Level FlightAware ADS-B
Mon 01:28:16 PM 9.4620 -74.8650 174° South 473 544 37,000  Level FlightAware ADS-B
Mon 01:28:56 PM 9.3730 -74.8560 174° South 471 542 37,000  Level FlightAware ADS-B
Mon 01:29:36 PM 9.2910 -74.8520 177° South 470 541 37,000  Level FlightAware ADS-B
Mon 01:30:21 PM 9.1890 -74.8620 186° South 471 542 37,000  Level FlightAware ADS-B
Mon 01:30:56 PM 9.1130 -74.8740 189° South 470 541 37,000  Level FlightAware ADS-B
Mon 01:31:41 PM 9.0170 -74.8890 189° South 473 544 37,000  Level FlightAware ADS-B
Mon 01:32:26 PM 8.9200 -74.9040 189° South 475 547 37,000  Level FlightAware ADS-B
Mon 01:33:56 PM 8.7260 -74.9340 189° South 477 549 37,000  Level FlightAware ADS-B
Mon 01:34:36 PM 8.6360 -74.9470 188° South 478 550 37,000  Level FlightAware ADS-B
Mon 01:35:16 PM 8.5500 -74.9610 189° South 478 550 37,000  Level FlightAware ADS-B
Mon 01:36:46 PM 8.3470 -74.9920 189° South 479 551 37,000  Level FlightAware ADS-B
Mon 01:37:41 PM 8.2250 -75.0110 189° South 480 552 37,000  Level FlightAware ADS-B
Mon 01:38:26 PM 8.1290 -75.0260 189° South 479 551 37,000  Level FlightAware ADS-B
Mon 01:39:11 PM 8.0270 -75.0410 188° South 480 552 37,000  Level FlightAware ADS-B
Mon 01:40:06 PM 7.9070 -75.0600 189° South 480 552 37,000  Level FlightAware ADS-B
Mon 01:40:47 PM 7.8180 -75.0740 189° South 481 554 37,000  Level FlightAware ADS-B
Mon 01:41:31 PM 7.7240 -75.0880 188° South 482 555 37,000  Level FlightAware ADS-B
Mon 01:42:21 PM 7.6170 -75.1040 188° South 482 555 37,000  Level FlightAware ADS-B
Mon 01:42:56 PM 7.5310 -75.1180 189° South 483 556 37,000  Level FlightAware ADS-B
Mon 01:43:21 PM 7.4780 -75.1260 189° South 483 556 37,000 -277 Level FlightAware ADS-B
Mon 01:44:01 PM 7.3960 -75.1380 188° South 484 557 36,700 -477 Descending FlightAware ADS-B
Mon 01:44:49 PM 7.2920 -75.1540 189° South 480 552 36,300 -1,938 Descending FlightAware ADS-B
Mon 01:45:31 PM 7.1930 -75.1690 189° South 34,000 -2,780 Descending FlightAware ADS-B
Mon 01:46:11 PM 7.1050 -75.1820 188° South 461 531 32,500 -2,175 Descending FlightAware ADS-B
Mon 01:46:51 PM 7.0210 -75.1950 189° South 451 519 31,100 -1,465 Descending FlightAware ADS-B
Mon 01:47:37 PM 6.9350 -75.2080 189° South 445 512 30,400 -1,570 Descending FlightAware ADS-B
Mon 01:48:38 PM 6.8190 -75.2260 189° South 444 511 28,300 -2,629 Descending FlightAware ADS-B
Mon 01:49:22 PM 6.7220 -75.2400 188° South 417 480 25,800 -2,819 Descending FlightAware ADS-B
Mon 01:50:01 PM 6.6500 -75.2510 189° South 412 474 24,400 -2,071 Descending FlightAware ADS-B
Mon 01:50:46 PM 6.5650 -75.2640 189° South 401 461 22,900 -1,071 Descending FlightAware ADS-B
Mon 01:51:25 PM 6.5040 -75.2740 189° South 401 461 22,900  Level FlightAware ADS-B
Mon 01:52:13 PM 6.4300 -75.2860 189° South 401 461 22,900  Level FlightAware ADS-B
Mon 01:53:02 PM 6.3530 -75.2980 189° South 401 461 22,900  Level FlightAware ADS-B
Mon 01:53:38 PM 6.2970 -75.3070 189° South 401 461 22,900  Level FlightAware ADS-B
Mon 01:54:39 PM 6.2020 -75.3220 189° South 401 461 22,900  Level FlightAware ADS-B
Mon 01:57:00 PM 6.1500 -75.4167 259° West  Level FlightAware Approximate
Mon 01:58:00 PM 6.1645 -75.4231 259° West  Level Estimated
Mon 01:59:00 PM 6.1645 -75.4231 259° West  Level Estimated
Mon 02:00:00 PM 6.1645 -75.4231 259° West  Level Estimated
Mon 02:01:00 PM 6.1645 -75.4231 259° West  Level Estimated
Mon 02:02:00 PM 6.1645 -75.4231 259° West  Level Estimated
Mon 02:03:00 PM 6.1645 -75.4231 259° West  Level Estimated
Mon 02:04:00 PM 6.1645 -75.4231 259° West  Level Estimated
Mon 02:05:00 PM 6.1645 -75.4231 259° West  Level Estimated
Mon 02:06:00 PM 6.1645 -75.4231 259° West  Level Estimated
Mon 02:07:00 PM 6.1645 -75.4231 259° West  Level Estimated
Mon 02:08:00 PM 6.1645 -75.4231 259° West  Level Estimated
Mon 02:09:00 PM 6.1645 -75.4231 259° West  Level Estimated
Mon 02:10:00 PM 6.1645 -75.4231 259° West  Level Estimated
Mon 02:11:00 PM 6.1645 -75.4231 259° West  Level Estimated
Mon 02:12:00 PM 6.1645 -75.4231 259° West  Level Estimated
Mon 02:13:00 PM 6.1645 -75.4231 259° West  Level Estimated
Mon 02:14:00 PM 6.1645 -75.4231 259° West  Level Estimated
Mon 02:15:00 PM 6.1645 -75.4231 259° West  Level Estimated

Login

Don't have an account? Register now (free) for customized features, flight alerts, and more!